createdAt,value
2019-02-24T00:00:47.599Z,22.73
2019-02-24T00:05:56.858Z,24.60
2019-02-24T00:11:04.591Z,26.67
2019-02-24T00:16:12.023Z,24.27
2019-02-24T00:21:17.927Z,22.23
2019-02-24T00:26:24.233Z,24.47
2019-02-24T00:31:31.471Z,24.73
2019-02-24T00:36:37.770Z,22.40
2019-02-24T00:41:43.660Z,25.73
2019-02-24T00:46:50.097Z,21.20
2019-02-24T00:51:55.930Z,23.60
2019-02-24T00:57:01.544Z,22.67
2019-02-24T01:02:07.403Z,19.17
2019-02-24T01:07:13.232Z,22.00
2019-02-24T01:12:18.831Z,22.43
2019-02-24T01:17:25.506Z,27.77
2019-02-24T01:22:32.597Z,24.10
2019-02-24T01:27:38.609Z,25.17
2019-02-24T01:32:45.269Z,29.87
2019-02-24T01:37:51.066Z,23.93
2019-02-24T01:42:57.581Z,25.87
2019-02-24T01:48:03.270Z,23.43
2019-02-24T01:53:09.536Z,23.17
2019-02-24T01:58:16.509Z,26.57
2019-02-24T02:03:22.516Z,21.83
2019-02-24T02:08:29.617Z,19.10
2019-02-24T02:13:35.244Z,22.73
2019-02-24T02:18:41.869Z,24.30
2019-02-24T02:23:47.852Z,24.50
2019-02-24T02:28:53.899Z,18.70
2019-02-24T02:33:59.827Z,21.23
2019-02-24T02:39:06.685Z,21.80
2019-02-24T02:44:13.191Z,22.43
2019-02-24T02:49:19.261Z,25.13
2019-02-24T02:54:25.128Z,27.57
2019-02-24T02:59:31.065Z,24.47
2019-02-24T03:04:38.406Z,23.50
2019-02-24T03:09:44.781Z,24.20
2019-02-24T03:14:51.832Z,24.27
2019-02-24T03:19:57.470Z,21.50
2019-02-24T03:25:04.023Z,22.30
2019-02-24T03:30:10.653Z,20.60
2019-02-24T03:35:16.355Z,20.53
2019-02-24T03:40:23.156Z,26.20
2019-02-24T03:45:29.863Z,21.50
2019-02-24T03:50:36.053Z,19.30
2019-02-24T03:55:41.691Z,26.93
2019-02-24T04:00:47.615Z,23.60
2019-02-24T04:05:53.138Z,24.30
2019-02-24T04:10:59.003Z,25.43
2019-02-24T04:16:05.653Z,26.37
2019-02-24T04:21:11.398Z,23.77
2019-02-24T04:26:17.397Z,24.90
2019-02-24T04:31:25.221Z,22.20
2019-02-24T04:36:30.868Z,23.20
2019-02-24T04:41:38.456Z,23.33
2019-02-24T04:46:45.444Z,23.70
2019-02-24T04:51:51.357Z,24.40
2019-02-24T04:56:57.817Z,24.87
2019-02-24T05:02:03.633Z,22.37
2019-02-24T05:07:10.076Z,21.30
2019-02-24T05:12:16.190Z,23.53
2019-02-24T05:17:21.917Z,22.67
2019-02-24T05:22:28.165Z,20.77
2019-02-24T05:27:34.101Z,20.13
2019-02-24T05:32:39.959Z,21.93
2019-02-24T05:37:45.519Z,25.77
2019-02-24T05:42:51.681Z,22.93
2019-02-24T05:47:59.097Z,21.77
2019-02-24T05:53:05.160Z,22.50
2019-02-24T05:58:11.159Z,21.63
2019-02-24T06:03:16.845Z,19.53
2019-02-24T06:08:22.886Z,19.10
2019-02-24T06:13:29.020Z,18.90
2019-02-24T06:18:35.168Z,23.30
2019-02-24T06:23:41.206Z,23.03
2019-02-24T06:28:47.545Z,21.90
2019-02-24T06:33:53.501Z,21.60
2019-02-24T06:38:59.587Z,25.03
2019-02-24T06:44:05.306Z,19.70
2019-02-24T06:49:11.150Z,24.00
2019-02-24T06:54:17.575Z,22.40
2019-02-24T06:59:24.487Z,23.43
2019-02-24T07:04:30.680Z,20.13
2019-02-24T07:09:36.420Z,23.87
2019-02-24T07:14:42.163Z,22.97
2019-02-24T07:19:47.856Z,24.27
2019-02-24T07:24:55.408Z,21.07
2019-02-24T07:30:03.280Z,25.13
2019-02-24T07:35:09.152Z,26.03
2019-02-24T07:40:15.264Z,22.27
2019-02-24T07:45:20.992Z,19.40
2019-02-24T07:50:26.602Z,27.33
2019-02-24T07:55:32.723Z,24.87
2019-02-24T08:00:38.877Z,24.33
2019-02-24T08:05:44.456Z,19.67
2019-02-24T08:10:50.090Z,21.27
2019-02-24T08:15:56.076Z,21.27
2019-02-24T08:21:02.121Z,22.73
2019-02-24T08:26:08.162Z,19.90
2019-02-24T08:31:14.218Z,21.57
2019-02-24T08:36:19.846Z,25.93
2019-02-24T08:41:26.882Z,22.30
2019-02-24T08:46:33.578Z,23.80
2019-02-24T08:51:40.517Z,25.37
2019-02-24T08:56:47.893Z,20.73
2019-02-24T09:01:55.224Z,21.77
2019-02-24T09:07:03.772Z,19.47
2019-02-24T09:12:10.007Z,20.17
2019-02-24T09:17:15.867Z,21.00
2019-02-24T09:22:21.981Z,21.87
2019-02-24T09:27:28.561Z,22.20
2019-02-24T09:32:34.943Z,25.00
2019-02-24T09:37:41.075Z,22.30
2019-02-24T09:42:47.352Z,18.63
2019-02-24T09:47:53.519Z,20.87
2019-02-24T09:53:00.690Z,22.23
2019-02-24T09:58:06.635Z,21.10
2019-02-24T10:03:12.782Z,19.50
2019-02-24T10:08:19.351Z,20.20
2019-02-24T10:13:26.360Z,19.53
2019-02-24T10:18:33.378Z,21.10
2019-02-24T10:23:40.428Z,20.90
2019-02-24T10:28:47.732Z,17.67
2019-02-24T10:33:54.622Z,17.33
2019-02-24T10:39:00.708Z,20.83
2019-02-24T10:44:08.610Z,18.33
2019-02-24T10:49:15.321Z,18.07
2019-02-24T10:54:22.854Z,16.07
2019-02-24T10:59:29.041Z,17.70
2019-02-24T11:04:36.391Z,15.60
2019-02-24T11:09:44.267Z,13.77
2019-02-24T11:14:51.031Z,18.47
2019-02-24T11:19:57.149Z,12.27
2019-02-24T11:25:03.339Z,15.40
2019-02-24T11:30:13.076Z,44.42
2019-02-24T11:35:20.684Z,10.83
2019-02-24T11:40:27.178Z,9.83
2019-02-24T11:45:33.894Z,8.77
2019-02-24T11:50:40.832Z,7.37
2019-02-24T11:55:48.049Z,11.30
2019-02-24T12:00:53.951Z,11.57
2019-02-24T12:06:00.643Z,14.47
2019-02-24T12:11:06.668Z,14.17
2019-02-24T12:16:12.624Z,12.43
2019-02-24T12:21:20.135Z,13.20
2019-02-24T12:26:25.743Z,13.53
2019-02-24T12:31:33.196Z,13.20
2019-02-24T12:36:41.929Z,11.33
2019-02-24T12:41:49.904Z,11.87
2019-02-24T12:46:57.147Z,14.73
2019-02-24T12:52:09.757Z,14.93
2019-02-24T12:57:20.334Z,11.93
2019-02-24T13:02:26.855Z,12.17
2019-02-24T13:07:36.245Z,11.33
2019-02-24T13:12:44.123Z,12.03
2019-02-24T13:17:54.374Z,13.40
2019-02-24T13:23:04.205Z,12.50
2019-02-24T13:28:11.141Z,12.17
2019-02-24T13:33:19.619Z,8.73
2019-02-24T13:38:27.698Z,10.27
2019-02-24T13:43:36.622Z,12.77
2019-02-24T13:48:44.107Z,10.00
2019-02-24T13:53:53.288Z,8.93
2019-02-24T13:59:00.309Z,12.57
2019-02-24T14:04:11.129Z,9.67
2019-02-24T14:09:18.948Z,13.17
2019-02-24T14:14:27.936Z,11.47
2019-02-24T14:19:37.988Z,10.60
2019-02-24T14:24:44.110Z,12.43
2019-02-24T14:29:53.054Z,9.90
2019-02-24T14:35:00.266Z,8.75
2019-02-24T14:40:10.806Z,11.40
2019-02-24T14:45:31.612Z,11.35
2019-02-24T14:50:41.151Z,11.68
2019-02-24T14:55:52.314Z,9.10
2019-02-24T15:01:02.294Z,10.18
2019-02-24T15:06:08.500Z,9.30
2019-02-24T15:11:17.611Z,10.38
2019-02-24T15:16:26.671Z,14.45
2019-02-24T15:21:43.686Z,13.20
2019-02-24T15:26:55.574Z,11.15
2019-02-24T15:32:04.956Z,18.45
2019-02-24T15:37:16.227Z,8.23
2019-02-24T15:42:26.362Z,9.15
2019-02-24T15:47:34.011Z,7.10
2019-02-24T15:52:41.580Z,8.77
2019-02-24T15:57:48.227Z,8.63
2019-02-24T16:03:01.482Z,7.33
2019-02-24T16:08:05.175Z,7.30
2019-02-24T16:13:17.008Z,7.43
2019-02-24T16:18:21.651Z,7.53
2019-02-24T16:23:27.686Z,9.53
2019-02-24T16:28:34.392Z,10.13
2019-02-24T16:33:42.328Z,9.10
2019-02-24T16:38:48.099Z,9.93
2019-02-24T16:43:56.072Z,9.33
2019-02-24T16:49:03.990Z,9.63
2019-02-24T16:54:10.499Z,8.27
2019-02-24T16:59:17.668Z,7.07
2019-02-24T17:04:23.816Z,11.57
2019-02-24T17:09:29.624Z,8.40
2019-02-24T17:14:36.400Z,9.27
2019-02-24T17:19:43.821Z,11.20
2019-02-24T17:24:49.899Z,10.93
2019-02-24T17:29:56.081Z,13.57
2019-02-24T17:35:02.875Z,9.37
2019-02-24T17:40:19.401Z,12.93
2019-02-24T17:45:27.135Z,13.40
2019-02-24T17:50:32.949Z,10.27
2019-02-24T17:55:38.758Z,10.57
2019-02-24T18:00:49.929Z,12.37
2019-02-24T18:05:55.623Z,11.47
2019-02-24T18:11:01.363Z,12.23
2019-02-24T18:16:07.410Z,13.60
2019-02-24T18:21:12.969Z,13.90
2019-02-24T18:26:20.745Z,13.87
2019-02-24T18:31:26.871Z,16.17
2019-02-24T18:36:32.679Z,12.60
2019-02-24T18:41:38.465Z,14.20
2019-02-24T18:46:45.361Z,13.50
2019-02-24T18:51:51.057Z,14.67
2019-02-24T18:56:56.605Z,14.17
2019-02-24T19:02:02.179Z,14.07
2019-02-24T19:07:08.040Z,12.67
2019-02-24T19:12:13.830Z,19.70
2019-02-24T19:17:19.385Z,14.07
2019-02-24T19:22:25.216Z,14.07
2019-02-24T19:27:31.066Z,15.87
2019-02-24T19:32:37.088Z,15.60
2019-02-24T19:37:43.947Z,16.70
2019-02-24T19:42:50.899Z,17.00
2019-02-24T19:47:56.515Z,14.97
2019-02-24T19:53:02.088Z,14.77
2019-02-24T19:58:07.907Z,16.27
2019-02-24T20:03:14.135Z,15.07
2019-02-24T20:08:19.765Z,13.57
2019-02-24T20:13:25.812Z,14.83
2019-02-24T20:18:31.535Z,15.53
2019-02-24T20:23:37.869Z,15.70
2019-02-24T20:28:45.053Z,14.70
2019-02-24T20:33:51.352Z,18.93
2019-02-24T20:38:57.577Z,16.30
2019-02-24T20:44:03.393Z,16.40
2019-02-24T20:49:09.113Z,16.77
2019-02-24T20:54:15.137Z,16.83
2019-02-24T20:59:21.466Z,21.80
2019-02-24T21:04:27.457Z,16.27
2019-02-24T21:09:34.001Z,18.80
2019-02-24T21:14:40.839Z,17.93
2019-02-24T21:19:47.108Z,17.47
2019-02-24T21:24:53.170Z,19.87
2019-02-24T21:29:59.143Z,19.70
2019-02-24T21:35:06.518Z,23.03
2019-02-24T21:40:19.327Z,18.97
2019-02-24T21:45:26.627Z,18.93
2019-02-24T21:50:32.578Z,18.97
2019-02-24T21:55:38.237Z,18.63
2019-02-24T22:00:44.107Z,19.17
2019-02-24T22:05:49.939Z,26.90
2019-02-24T22:10:55.504Z,19.57
2019-02-24T22:16:01.446Z,18.13
2019-02-24T22:21:07.009Z,18.47
2019-02-24T22:26:12.758Z,19.40
2019-02-24T22:31:18.324Z,19.50
2019-02-24T22:36:24.731Z,20.20
2019-02-24T22:41:30.361Z,21.37
2019-02-24T22:46:35.929Z,21.33
2019-02-24T22:51:43.931Z,17.73
2019-02-24T22:56:50.268Z,19.87
2019-02-24T23:01:56.280Z,18.40
2019-02-24T23:07:02.117Z,19.03
2019-02-24T23:12:07.837Z,19.60
2019-02-24T23:17:13.463Z,20.00
2019-02-24T23:22:19.328Z,20.73
2019-02-24T23:27:25.216Z,20.53
2019-02-24T23:32:31.416Z,18.97
2019-02-24T23:37:36.970Z,21.00
2019-02-24T23:42:42.799Z,20.87
2019-02-24T23:47:48.377Z,17.53
2019-02-24T23:52:54.243Z,20.47
2019-02-24T23:58:00.208Z,19.67
